sensor_id;sensor_type;location;lat;lon;timestamp;temperature;humidity
29663;DHT22;16578;53.266;7.920;2022-07-17T00:00:25;17.60;59.40
29663;DHT22;16578;53.266;7.920;2022-07-17T00:02:51;17.50;59.40
29663;DHT22;16578;53.266;7.920;2022-07-17T00:05:17;17.50;59.50
29663;DHT22;16578;53.266;7.920;2022-07-17T00:07:43;17.50;59.60
29663;DHT22;16578;53.266;7.920;2022-07-17T00:10:09;17.50;59.60
29663;DHT22;16578;53.266;7.920;2022-07-17T00:12:35;17.50;59.70
29663;DHT22;16578;53.266;7.920;2022-07-17T00:15:00;17.40;59.70
29663;DHT22;16578;53.266;7.920;2022-07-17T00:17:26;17.40;59.80
29663;DHT22;16578;53.266;7.920;2022-07-17T00:19:51;17.40;59.90
29663;DHT22;16578;53.266;7.920;2022-07-17T00:22:17;17.40;60.00
29663;DHT22;16578;53.266;7.920;2022-07-17T00:24:42;17.40;60.10
29663;DHT22;16578;53.266;7.920;2022-07-17T00:27:08;17.40;60.20
29663;DHT22;16578;53.266;7.920;2022-07-17T00:29:34;17.40;60.30
29663;DHT22;16578;53.266;7.920;2022-07-17T00:31:59;17.40;60.50
29663;DHT22;16578;53.266;7.920;2022-07-17T00:34:25;17.30;61.40
29663;DHT22;16578;53.266;7.920;2022-07-17T00:36:50;17.30;61.50
29663;DHT22;16578;53.266;7.920;2022-07-17T00:39:16;17.30;60.70
29663;DHT22;16578;53.266;7.920;2022-07-17T00:41:44;17.30;60.80
29663;DHT22;16578;53.266;7.920;2022-07-17T00:44:11;17.30;60.90
29663;DHT22;16578;53.266;7.920;2022-07-17T00:46:38;17.40;61.00
29663;DHT22;16578;53.266;7.920;2022-07-17T00:49:05;17.30;61.10
29663;DHT22;16578;53.266;7.920;2022-07-17T00:51:31;17.40;61.30
29663;DHT22;16578;53.266;7.920;2022-07-17T00:53:58;17.40;61.40
29663;DHT22;16578;53.266;7.920;2022-07-17T00:56:24;17.40;61.40
29663;DHT22;16578;53.266;7.920;2022-07-17T00:58:52;17.40;61.50
29663;DHT22;16578;53.266;7.920;2022-07-17T01:01:18;17.40;61.60
29663;DHT22;16578;53.266;7.920;2022-07-17T01:03:43;17.40;61.60
29663;DHT22;16578;53.266;7.920;2022-07-17T01:06:09;17.40;61.70
29663;DHT22;16578;53.266;7.920;2022-07-17T01:08:35;17.40;61.80
29663;DHT22;16578;53.266;7.920;2022-07-17T01:11:02;17.40;62.00
29663;DHT22;16578;53.266;7.920;2022-07-17T01:13:28;17.40;61.90
29663;DHT22;16578;53.266;7.920;2022-07-17T01:15:54;17.40;61.80
29663;DHT22;16578;53.266;7.920;2022-07-17T01:18:20;17.40;61.90
29663;DHT22;16578;53.266;7.920;2022-07-17T01:20:47;17.40;61.80
29663;DHT22;16578;53.266;7.920;2022-07-17T01:23:13;17.40;61.80
29663;DHT22;16578;53.266;7.920;2022-07-17T01:25:39;17.40;61.80
29663;DHT22;16578;53.266;7.920;2022-07-17T01:28:06;17.40;61.80
29663;DHT22;16578;53.266;7.920;2022-07-17T01:30:32;17.40;61.80
29663;DHT22;16578;53.266;7.920;2022-07-17T01:32:58;17.40;62.00
29663;DHT22;16578;53.266;7.920;2022-07-17T01:35:23;17.40;61.80
29663;DHT22;16578;53.266;7.920;2022-07-17T01:37:49;17.30;61.70
29663;DHT22;16578;53.266;7.920;2022-07-17T01:40:16;17.40;61.80
29663;DHT22;16578;53.266;7.920;2022-07-17T01:42:48;17.40;61.80
29663;DHT22;16578;53.266;7.920;2022-07-17T01:45:15;17.30;61.70
29663;DHT22;16578;53.266;7.920;2022-07-17T01:47:41;17.30;61.70
29663;DHT22;16578;53.266;7.920;2022-07-17T01:50:07;17.30;61.70
29663;DHT22;16578;53.266;7.920;2022-07-17T01:52:36;17.30;61.70
29663;DHT22;16578;53.266;7.920;2022-07-17T01:55:04;17.30;61.70
29663;DHT22;16578;53.266;7.920;2022-07-17T01:57:29;17.20;61.60
29663;DHT22;16578;53.266;7.920;2022-07-17T01:59:55;17.20;61.60
29663;DHT22;16578;53.266;7.920;2022-07-17T02:02:20;17.20;61.60
29663;DHT22;16578;53.266;7.920;2022-07-17T02:04:46;17.20;61.70
29663;DHT22;16578;53.266;7.920;2022-07-17T02:07:12;17.20;61.70
29663;DHT22;16578;53.266;7.920;2022-07-17T02:09:38;17.10;61.70
29663;DHT22;16578;53.266;7.920;2022-07-17T02:12:04;17.10;61.70
29663;DHT22;16578;53.266;7.920;2022-07-17T02:14:30;17.10;61.80
29663;DHT22;16578;53.266;7.920;2022-07-17T02:16:56;17.10;61.80
29663;DHT22;16578;53.266;7.920;2022-07-17T02:19:21;17.00;61.90
29663;DHT22;16578;53.266;7.920;2022-07-17T02:21:47;17.00;61.90
29663;DHT22;16578;53.266;7.920;2022-07-17T02:24:13;17.00;61.90
29663;DHT22;16578;53.266;7.920;2022-07-17T02:26:38;17.00;61.90
29663;DHT22;16578;53.266;7.920;2022-07-17T02:29:04;17.00;62.00
29663;DHT22;16578;53.266;7.920;2022-07-17T02:31:30;16.90;61.90
29663;DHT22;16578;53.266;7.920;2022-07-17T02:33:56;16.90;62.10
29663;DHT22;16578;53.266;7.920;2022-07-17T02:36:21;16.90;62.10
29663;DHT22;16578;53.266;7.920;2022-07-17T02:38:47;16.90;62.10
29663;DHT22;16578;53.266;7.920;2022-07-17T02:41:13;16.90;62.20
29663;DHT22;16578;53.266;7.920;2022-07-17T02:43:39;16.90;62.10
29663;DHT22;16578;53.266;7.920;2022-07-17T02:46:04;16.80;62.10
29663;DHT22;16578;53.266;7.920;2022-07-17T02:48:30;16.80;62.20
29663;DHT22;16578;53.266;7.920;2022-07-17T02:50:56;16.80;63.10
29663;DHT22;16578;53.266;7.920;2022-07-17T02:53:21;16.80;62.20
29663;DHT22;16578;53.266;7.920;2022-07-17T02:55:47;16.80;62.20
29663;DHT22;16578;53.266;7.920;2022-07-17T02:58:12;16.80;62.20
29663;DHT22;16578;53.266;7.920;2022-07-17T03:00:39;16.80;62.10
29663;DHT22;16578;53.266;7.920;2022-07-17T03:03:04;16.70;62.10
29663;DHT22;16578;53.266;7.920;2022-07-17T03:05:30;16.70;62.20
29663;DHT22;16578;53.266;7.920;2022-07-17T03:07:55;16.70;62.30
29663;DHT22;16578;53.266;7.920;2022-07-17T03:10:21;16.70;62.40
29663;DHT22;16578;53.266;7.920;2022-07-17T03:12:48;16.60;62.50
29663;DHT22;16578;53.266;7.920;2022-07-17T03:15:14;16.60;62.70
29663;DHT22;16578;53.266;7.920;2022-07-17T03:17:40;16.60;62.80
29663;DHT22;16578;53.266;7.920;2022-07-17T03:20:07;16.60;63.00
29663;DHT22;16578;53.266;7.920;2022-07-17T03:22:32;16.60;63.10
29663;DHT22;16578;53.266;7.920;2022-07-17T03:24:58;16.60;63.30
29663;DHT22;16578;53.266;7.920;2022-07-17T03:27:24;16.50;63.50
29663;DHT22;16578;53.266;7.920;2022-07-17T03:29:49;16.50;63.50
29663;DHT22;16578;53.266;7.920;2022-07-17T03:32:15;16.50;63.50
29663;DHT22;16578;53.266;7.920;2022-07-17T03:34:41;16.50;63.60
29663;DHT22;16578;53.266;7.920;2022-07-17T03:37:06;16.50;63.60
29663;DHT22;16578;53.266;7.920;2022-07-17T03:39:32;16.50;63.70
29663;DHT22;16578;53.266;7.920;2022-07-17T03:41:57;16.50;63.60
29663;DHT22;16578;53.266;7.920;2022-07-17T03:44:23;16.50;63.50
29663;DHT22;16578;53.266;7.920;2022-07-17T03:46:49;16.50;63.50
29663;DHT22;16578;53.266;7.920;2022-07-17T03:49:15;16.50;63.60
29663;DHT22;16578;53.266;7.920;2022-07-17T03:51:40;16.50;63.60
29663;DHT22;16578;53.266;7.920;2022-07-17T03:54:06;16.50;63.60
29663;DHT22;16578;53.266;7.920;2022-07-17T03:56:32;16.50;63.70
29663;DHT22;16578;53.266;7.920;2022-07-17T03:58:57;16.50;63.70
29663;DHT22;16578;53.266;7.920;2022-07-17T04:01:23;16.50;63.80
29663;DHT22;16578;53.266;7.920;2022-07-17T04:03:49;16.50;63.80
29663;DHT22;16578;53.266;7.920;2022-07-17T04:06:14;16.50;63.90
29663;DHT22;16578;53.266;7.920;2022-07-17T04:08:40;16.50;64.10
29663;DHT22;16578;53.266;7.920;2022-07-17T04:11:05;16.50;64.20
29663;DHT22;16578;53.266;7.920;2022-07-17T04:13:31;16.50;64.40
29663;DHT22;16578;53.266;7.920;2022-07-17T04:15:57;16.50;64.50
29663;DHT22;16578;53.266;7.920;2022-07-17T04:18:31;16.50;64.50
29663;DHT22;16578;53.266;7.920;2022-07-17T04:21:01;16.50;64.80
29663;DHT22;16578;53.266;7.920;2022-07-17T04:23:27;16.60;64.80
29663;DHT22;16578;53.266;7.920;2022-07-17T04:25:53;16.60;65.00
29663;DHT22;16578;53.266;7.920;2022-07-17T04:28:19;16.60;65.10
29663;DHT22;16578;53.266;7.920;2022-07-17T04:30:45;16.60;65.20
29663;DHT22;16578;53.266;7.920;2022-07-17T04:33:11;16.60;65.20
29663;DHT22;16578;53.266;7.920;2022-07-17T04:35:37;16.60;65.20
29663;DHT22;16578;53.266;7.920;2022-07-17T04:38:04;16.70;65.30
29663;DHT22;16578;53.266;7.920;2022-07-17T04:40:31;16.70;65.40
29663;DHT22;16578;53.266;7.920;2022-07-17T04:42:57;16.70;65.30
29663;DHT22;16578;53.266;7.920;2022-07-17T04:45:22;16.70;65.30
29663;DHT22;16578;53.266;7.920;2022-07-17T04:47:48;16.70;65.40
29663;DHT22;16578;53.266;7.920;2022-07-17T04:50:13;16.70;65.50
29663;DHT22;16578;53.266;7.920;2022-07-17T04:52:39;16.80;65.60
29663;DHT22;16578;53.266;7.920;2022-07-17T04:55:05;16.80;65.70
29663;DHT22;16578;53.266;7.920;2022-07-17T04:57:31;16.80;65.60
29663;DHT22;16578;53.266;7.920;2022-07-17T04:59:57;16.80;65.60
29663;DHT22;16578;53.266;7.920;2022-07-17T05:02:22;16.80;65.80
29663;DHT22;16578;53.266;7.920;2022-07-17T05:04:48;16.80;65.80
29663;DHT22;16578;53.266;7.920;2022-07-17T05:07:14;16.80;65.80
29663;DHT22;16578;53.266;7.920;2022-07-17T05:09:40;16.80;65.90
29663;DHT22;16578;53.266;7.920;2022-07-17T05:12:06;16.90;66.00
29663;DHT22;16578;53.266;7.920;2022-07-17T05:14:31;16.90;66.10
29663;DHT22;16578;53.266;7.920;2022-07-17T05:16:57;16.90;66.20
29663;DHT22;16578;53.266;7.920;2022-07-17T05:19:23;16.90;66.10
29663;DHT22;16578;53.266;7.920;2022-07-17T05:21:49;16.90;66.20
29663;DHT22;16578;53.266;7.920;2022-07-17T05:24:15;16.90;66.20
29663;DHT22;16578;53.266;7.920;2022-07-17T05:26:41;17.00;66.30
29663;DHT22;16578;53.266;7.920;2022-07-17T05:29:06;17.00;66.40
29663;DHT22;16578;53.266;7.920;2022-07-17T05:31:32;17.00;66.50
29663;DHT22;16578;53.266;7.920;2022-07-17T05:33:58;17.10;66.70
29663;DHT22;16578;53.266;7.920;2022-07-17T05:36:23;17.10;66.60
29663;DHT22;16578;53.266;7.920;2022-07-17T05:38:49;17.10;66.70
29663;DHT22;16578;53.266;7.920;2022-07-17T05:41:14;17.20;66.70
29663;DHT22;16578;53.266;7.920;2022-07-17T05:43:40;17.20;66.80
29663;DHT22;16578;53.266;7.920;2022-07-17T05:46:06;17.20;67.00
29663;DHT22;16578;53.266;7.920;2022-07-17T05:48:31;17.30;67.10
29663;DHT22;16578;53.266;7.920;2022-07-17T05:50:57;17.30;67.10
29663;DHT22;16578;53.266;7.920;2022-07-17T05:53:23;17.40;67.10
29663;DHT22;16578;53.266;7.920;2022-07-17T05:55:49;17.40;67.00
29663;DHT22;16578;53.266;7.920;2022-07-17T05:58:14;17.50;67.20
29663;DHT22;16578;53.266;7.920;2022-07-17T06:00:40;17.50;67.30
29663;DHT22;16578;53.266;7.920;2022-07-17T06:03:06;17.50;67.40
29663;DHT22;16578;53.266;7.920;2022-07-17T06:05:32;17.60;67.50
29663;DHT22;16578;53.266;7.920;2022-07-17T06:07:57;17.60;67.50
29663;DHT22;16578;53.266;7.920;2022-07-17T06:10:24;17.70;67.60
29663;DHT22;16578;53.266;7.920;2022-07-17T06:12:50;17.70;67.60
29663;DHT22;16578;53.266;7.920;2022-07-17T06:15:18;17.80;67.70
29663;DHT22;16578;53.266;7.920;2022-07-17T06:17:44;17.90;67.70
29663;DHT22;16578;53.266;7.920;2022-07-17T06:20:10;17.90;67.70
29663;DHT22;16578;53.266;7.920;2022-07-17T06:22:36;18.00;67.90
29663;DHT22;16578;53.266;7.920;2022-07-17T06:25:02;18.10;68.00
29663;DHT22;16578;53.266;7.920;2022-07-17T06:27:28;18.10;68.00
29663;DHT22;16578;53.266;7.920;2022-07-17T06:29:53;18.20;67.90
29663;DHT22;16578;53.266;7.920;2022-07-17T06:32:19;18.20;67.90
29663;DHT22;16578;53.266;7.920;2022-07-17T06:34:45;18.30;68.00
29663;DHT22;16578;53.266;7.920;2022-07-17T06:37:10;18.40;68.10
29663;DHT22;16578;53.266;7.920;2022-07-17T06:39:36;18.50;68.00
29663;DHT22;16578;53.266;7.920;2022-07-17T06:42:01;18.60;67.80
29663;DHT22;16578;53.266;7.920;2022-07-17T06:44:27;18.60;67.70
29663;DHT22;16578;53.266;7.920;2022-07-17T06:46:53;18.70;67.60
29663;DHT22;16578;53.266;7.920;2022-07-17T06:49:19;18.80;67.50
29663;DHT22;16578;53.266;7.920;2022-07-17T06:51:44;18.80;67.20
29663;DHT22;16578;53.266;7.920;2022-07-17T06:54:12;18.90;66.90
29663;DHT22;16578;53.266;7.920;2022-07-17T06:56:38;19.00;66.90
29663;DHT22;16578;53.266;7.920;2022-07-17T06:59:03;19.00;67.80
29663;DHT22;16578;53.266;7.920;2022-07-17T07:01:33;19.10;66.70
29663;DHT22;16578;53.266;7.920;2022-07-17T07:03:58;19.10;66.70
29663;DHT22;16578;53.266;7.920;2022-07-17T07:06:24;19.20;66.40
29663;DHT22;16578;53.266;7.920;2022-07-17T07:08:49;19.20;66.10
29663;DHT22;16578;53.266;7.920;2022-07-17T07:11:15;19.30;66.10
29663;DHT22;16578;53.266;7.920;2022-07-17T07:13:40;19.30;66.00
29663;DHT22;16578;53.266;7.920;2022-07-17T07:16:06;19.30;65.80
29663;DHT22;16578;53.266;7.920;2022-07-17T07:18:31;19.40;65.80
29663;DHT22;16578;53.266;7.920;2022-07-17T07:20:57;19.40;66.40
29663;DHT22;16578;53.266;7.920;2022-07-17T07:23:23;19.50;65.80
29663;DHT22;16578;53.266;7.920;2022-07-17T07:25:48;19.50;65.70
29663;DHT22;16578;53.266;7.920;2022-07-17T07:28:14;19.50;65.60
29663;DHT22;16578;53.266;7.920;2022-07-17T07:30:39;19.60;65.30
29663;DHT22;16578;53.266;7.920;2022-07-17T07:33:05;19.60;65.40
29663;DHT22;16578;53.266;7.920;2022-07-17T07:35:30;19.70;65.70
29663;DHT22;16578;53.266;7.920;2022-07-17T07:37:56;19.70;65.60
29663;DHT22;16578;53.266;7.920;2022-07-17T07:40:21;19.70;65.60
29663;DHT22;16578;53.266;7.920;2022-07-17T07:42:47;19.80;66.40
29663;DHT22;16578;53.266;7.920;2022-07-17T07:45:12;19.80;65.60
29663;DHT22;16578;53.266;7.920;2022-07-17T07:47:43;19.90;65.50
29663;DHT22;16578;53.266;7.920;2022-07-17T07:50:09;19.90;65.00
29663;DHT22;16578;53.266;7.920;2022-07-17T07:52:36;20.00;64.80
29663;DHT22;16578;53.266;7.920;2022-07-17T07:55:02;20.00;64.70
29663;DHT22;16578;53.266;7.920;2022-07-17T07:57:28;20.00;64.60
29663;DHT22;16578;53.266;7.920;2022-07-17T07:59:54;20.00;64.60
29663;DHT22;16578;53.266;7.920;2022-07-17T08:02:20;20.10;64.40
29663;DHT22;16578;53.266;7.920;2022-07-17T08:04:45;20.10;64.30
29663;DHT22;16578;53.266;7.920;2022-07-17T08:07:11;20.10;64.20
29663;DHT22;16578;53.266;7.920;2022-07-17T08:09:36;20.10;64.30
29663;DHT22;16578;53.266;7.920;2022-07-17T08:12:02;20.20;64.40
29663;DHT22;16578;53.266;7.920;2022-07-17T08:14:27;20.20;64.20
29663;DHT22;16578;53.266;7.920;2022-07-17T08:16:53;20.20;64.10
29663;DHT22;16578;53.266;7.920;2022-07-17T08:19:19;20.30;64.00
29663;DHT22;16578;53.266;7.920;2022-07-17T08:21:44;20.30;63.80
29663;DHT22;16578;53.266;7.920;2022-07-17T08:24:10;20.30;63.80
29663;DHT22;16578;53.266;7.920;2022-07-17T08:26:36;20.40;63.60
29663;DHT22;16578;53.266;7.920;2022-07-17T08:29:01;20.40;63.20
29663;DHT22;16578;53.266;7.920;2022-07-17T08:31:27;20.40;62.90
29663;DHT22;16578;53.266;7.920;2022-07-17T08:33:52;20.40;63.20
29663;DHT22;16578;53.266;7.920;2022-07-17T08:36:18;20.40;63.30
29663;DHT22;16578;53.266;7.920;2022-07-17T08:38:43;20.50;63.20
29663;DHT22;16578;53.266;7.920;2022-07-17T08:41:09;20.50;63.20
29663;DHT22;16578;53.266;7.920;2022-07-17T08:43:40;20.60;62.90
29663;DHT22;16578;53.266;7.920;2022-07-17T08:46:10;20.60;62.70
29663;DHT22;16578;53.266;7.920;2022-07-17T08:48:35;20.60;62.20
29663;DHT22;16578;53.266;7.920;2022-07-17T08:51:02;20.60;62.60
29663;DHT22;16578;53.266;7.920;2022-07-17T08:53:27;20.60;62.30
29663;DHT22;16578;53.266;7.920;2022-07-17T08:55:53;20.60;62.00
29663;DHT22;16578;53.266;7.920;2022-07-17T08:58:19;20.70;61.80
29663;DHT22;16578;53.266;7.920;2022-07-17T09:00:44;20.70;62.10
29663;DHT22;16578;53.266;7.920;2022-07-17T09:03:11;20.70;61.90
29663;DHT22;16578;53.266;7.920;2022-07-17T09:05:39;20.80;61.70
29663;DHT22;16578;53.266;7.920;2022-07-17T09:08:07;20.80;61.20
29663;DHT22;16578;53.266;7.920;2022-07-17T09:10:38;20.80;61.00
29663;DHT22;16578;53.266;7.920;2022-07-17T09:13:24;20.80;62.20
29663;DHT22;16578;53.266;7.920;2022-07-17T09:16:12;20.90;60.90
29663;DHT22;16578;53.266;7.920;2022-07-17T09:18:49;20.90;61.30
29663;DHT22;16578;53.266;7.920;2022-07-17T09:21:20;21.00;61.30
29663;DHT22;16578;53.266;7.920;2022-07-17T09:23:57;21.00;60.90
29663;DHT22;16578;53.266;7.920;2022-07-17T09:26:23;21.10;60.70
29663;DHT22;16578;53.266;7.920;2022-07-17T09:28:49;21.10;60.40
29663;DHT22;16578;53.266;7.920;2022-07-17T09:31:27;21.10;60.30
29663;DHT22;16578;53.266;7.920;2022-07-17T09:33:54;21.20;60.50
29663;DHT22;16578;53.266;7.920;2022-07-17T09:36:19;21.20;60.60
29663;DHT22;16578;53.266;7.920;2022-07-17T09:38:45;21.30;60.20
29663;DHT22;16578;53.266;7.920;2022-07-17T09:41:16;21.30;60.50
29663;DHT22;16578;53.266;7.920;2022-07-17T09:43:47;21.40;60.60
29663;DHT22;16578;53.266;7.920;2022-07-17T09:46:22;21.40;60.40
29663;DHT22;16578;53.266;7.920;2022-07-17T09:48:50;21.40;60.20
29663;DHT22;16578;53.266;7.920;2022-07-17T09:51:19;21.40;60.00
29663;DHT22;16578;53.266;7.920;2022-07-17T09:53:47;21.40;60.00
29663;DHT22;16578;53.266;7.920;2022-07-17T09:56:18;21.40;59.90
29663;DHT22;16578;53.266;7.920;2022-07-17T09:58:55;21.40;60.20
29663;DHT22;16578;53.266;7.920;2022-07-17T10:01:22;21.50;60.10
29663;DHT22;16578;53.266;7.920;2022-07-17T10:03:49;21.50;60.20
29663;DHT22;16578;53.266;7.920;2022-07-17T10:06:16;21.50;60.10
29663;DHT22;16578;53.266;7.920;2022-07-17T10:08:41;21.60;59.80
29663;DHT22;16578;53.266;7.920;2022-07-17T10:11:08;21.60;59.90
29663;DHT22;16578;53.266;7.920;2022-07-17T10:13:37;21.60;59.60
29663;DHT22;16578;53.266;7.920;2022-07-17T10:16:04;21.60;59.30
29663;DHT22;16578;53.266;7.920;2022-07-17T10:18:38;21.70;59.20
29663;DHT22;16578;53.266;7.920;2022-07-17T10:21:14;21.70;59.10
29663;DHT22;16578;53.266;7.920;2022-07-17T10:23:41;21.70;59.00
29663;DHT22;16578;53.266;7.920;2022-07-17T10:26:08;21.70;59.10
29663;DHT22;16578;53.266;7.920;2022-07-17T10:28:41;21.80;59.40
29663;DHT22;16578;53.266;7.920;2022-07-17T10:31:07;21.90;59.00
29663;DHT22;16578;53.266;7.920;2022-07-17T10:33:34;21.90;59.00
29663;DHT22;16578;53.266;7.920;2022-07-17T10:35:59;22.00;58.90
29663;DHT22;16578;53.266;7.920;2022-07-17T10:38:27;22.00;58.90
29663;DHT22;16578;53.266;7.920;2022-07-17T10:41:02;22.10;58.40
29663;DHT22;16578;53.266;7.920;2022-07-17T10:43:43;22.10;58.70
29663;DHT22;16578;53.266;7.920;2022-07-17T10:46:09;22.20;57.50
29663;DHT22;16578;53.266;7.920;2022-07-17T10:48:35;22.20;58.00
29663;DHT22;16578;53.266;7.920;2022-07-17T10:51:01;22.20;57.80
29663;DHT22;16578;53.266;7.920;2022-07-17T10:53:33;22.30;57.50
29663;DHT22;16578;53.266;7.920;2022-07-17T10:56:04;22.30;57.00
29663;DHT22;16578;53.266;7.920;2022-07-17T10:58:38;22.30;56.90
29663;DHT22;16578;53.266;7.920;2022-07-17T11:03:42;22.40;56.50
29663;DHT22;16578;53.266;7.920;2022-07-17T11:06:13;22.40;56.80
29663;DHT22;16578;53.266;7.920;2022-07-17T11:08:44;22.40;57.10
29663;DHT22;16578;53.266;7.920;2022-07-17T11:11:10;22.50;57.50
29663;DHT22;16578;53.266;7.920;2022-07-17T11:13:36;22.50;57.50
29663;DHT22;16578;53.266;7.920;2022-07-17T11:16:02;22.60;57.20
29663;DHT22;16578;53.266;7.920;2022-07-17T11:18:27;22.60;56.90
29663;DHT22;16578;53.266;7.920;2022-07-17T11:20:58;22.70;56.90
29663;DHT22;16578;53.266;7.920;2022-07-17T11:23:29;22.70;56.70
29663;DHT22;16578;53.266;7.920;2022-07-17T11:26:02;22.80;56.90
29663;DHT22;16578;53.266;7.920;2022-07-17T11:28:37;22.90;57.20
29663;DHT22;16578;53.266;7.920;2022-07-17T11:31:21;22.90;57.00
29663;DHT22;16578;53.266;7.920;2022-07-17T11:33:55;22.90;57.00
29663;DHT22;16578;53.266;7.920;2022-07-17T11:38:52;23.00;56.20
29663;DHT22;16578;53.266;7.920;2022-07-17T11:41:18;23.00;56.60
29663;DHT22;16578;53.266;7.920;2022-07-17T11:43:45;23.00;57.30
29663;DHT22;16578;53.266;7.920;2022-07-17T11:46:11;23.00;56.60
29663;DHT22;16578;53.266;7.920;2022-07-17T11:48:41;23.10;56.40
29663;DHT22;16578;53.266;7.920;2022-07-17T11:51:06;23.10;56.20
29663;DHT22;16578;53.266;7.920;2022-07-17T11:53:34;23.10;56.10
29663;DHT22;16578;53.266;7.920;2022-07-17T11:56:00;23.10;55.90
29663;DHT22;16578;53.266;7.920;2022-07-17T11:58:26;23.10;56.00
29663;DHT22;16578;53.266;7.920;2022-07-17T12:01:05;23.20;56.10
29663;DHT22;16578;53.266;7.920;2022-07-17T12:03:30;23.20;56.20
29663;DHT22;16578;53.266;7.920;2022-07-17T12:05:56;23.10;56.80
29663;DHT22;16578;53.266;7.920;2022-07-17T12:08:23;23.20;56.70
29663;DHT22;16578;53.266;7.920;2022-07-17T12:11:03;23.20;56.60
29663;DHT22;16578;53.266;7.920;2022-07-17T12:13:40;23.30;56.60
29663;DHT22;16578;53.266;7.920;2022-07-17T12:16:38;23.30;56.40
29663;DHT22;16578;53.266;7.920;2022-07-17T12:19:19;23.40;56.20
29663;DHT22;16578;53.266;7.920;2022-07-17T12:22:02;23.30;56.20
29663;DHT22;16578;53.266;7.920;2022-07-17T12:24:39;23.40;56.30
29663;DHT22;16578;53.266;7.920;2022-07-17T12:27:07;23.40;56.50
29663;DHT22;16578;53.266;7.920;2022-07-17T12:29:33;23.40;56.30
29663;DHT22;16578;53.266;7.920;2022-07-17T12:32:11;23.40;56.20
29663;DHT22;16578;53.266;7.920;2022-07-17T12:34:39;23.50;55.90
29663;DHT22;16578;53.266;7.920;2022-07-17T12:37:10;23.50;55.80
29663;DHT22;16578;53.266;7.920;2022-07-17T12:39:36;23.50;56.00
29663;DHT22;16578;53.266;7.920;2022-07-17T12:42:03;23.60;55.80
29663;DHT22;16578;53.266;7.920;2022-07-17T12:44:28;23.60;56.00
29663;DHT22;16578;53.266;7.920;2022-07-17T12:46:54;23.60;55.90
29663;DHT22;16578;53.266;7.920;2022-07-17T12:49:20;23.60;56.10
29663;DHT22;16578;53.266;7.920;2022-07-17T12:51:46;23.70;55.80
29663;DHT22;16578;53.266;7.920;2022-07-17T12:54:11;23.70;55.60
29663;DHT22;16578;53.266;7.920;2022-07-17T12:56:37;23.70;55.20
29663;DHT22;16578;53.266;7.920;2022-07-17T12:59:03;23.70;55.30
29663;DHT22;16578;53.266;7.920;2022-07-17T13:01:29;23.80;55.50
29663;DHT22;16578;53.266;7.920;2022-07-17T13:03:55;23.80;55.50
29663;DHT22;16578;53.266;7.920;2022-07-17T13:06:21;23.80;55.30
29663;DHT22;16578;53.266;7.920;2022-07-17T13:08:46;23.80;55.00
29663;DHT22;16578;53.266;7.920;2022-07-17T13:11:12;23.80;55.00
29663;DHT22;16578;53.266;7.920;2022-07-17T13:13:38;23.90;55.20
29663;DHT22;16578;53.266;7.920;2022-07-17T13:16:04;23.90;55.40
29663;DHT22;16578;53.266;7.920;2022-07-17T13:18:30;23.90;55.60
29663;DHT22;16578;53.266;7.920;2022-07-17T13:20:55;24.00;55.60
29663;DHT22;16578;53.266;7.920;2022-07-17T13:23:21;24.00;55.80
29663;DHT22;16578;53.266;7.920;2022-07-17T13:25:46;24.00;55.70
29663;DHT22;16578;53.266;7.920;2022-07-17T13:28:12;24.00;56.20
29663;DHT22;16578;53.266;7.920;2022-07-17T13:30:38;24.10;55.30
29663;DHT22;16578;53.266;7.920;2022-07-17T13:33:05;24.10;55.40
29663;DHT22;16578;53.266;7.920;2022-07-17T13:35:31;24.20;55.30
29663;DHT22;16578;53.266;7.920;2022-07-17T13:37:57;24.20;54.90
29663;DHT22;16578;53.266;7.920;2022-07-17T13:40:23;24.20;54.50
29663;DHT22;16578;53.266;7.920;2022-07-17T13:42:53;24.20;54.70
29663;DHT22;16578;53.266;7.920;2022-07-17T13:45:19;24.30;55.00
29663;DHT22;16578;53.266;7.920;2022-07-17T13:47:44;24.30;55.00
29663;DHT22;16578;53.266;7.920;2022-07-17T13:50:10;24.30;54.70
29663;DHT22;16578;53.266;7.920;2022-07-17T13:52:37;24.40;54.80
29663;DHT22;16578;53.266;7.920;2022-07-17T13:55:04;24.40;54.60
29663;DHT22;16578;53.266;7.920;2022-07-17T13:57:30;24.40;54.80
29663;DHT22;16578;53.266;7.920;2022-07-17T13:59:56;24.50;54.90
29663;DHT22;16578;53.266;7.920;2022-07-17T14:02:22;24.50;54.80
29663;DHT22;16578;53.266;7.920;2022-07-17T14:04:47;24.50;54.40
29663;DHT22;16578;53.266;7.920;2022-07-17T14:07:13;24.50;54.70
29663;DHT22;16578;53.266;7.920;2022-07-17T14:09:40;24.60;54.90
29663;DHT22;16578;53.266;7.920;2022-07-17T14:12:06;24.60;54.70
29663;DHT22;16578;53.266;7.920;2022-07-17T14:14:31;24.70;54.80
29663;DHT22;16578;53.266;7.920;2022-07-17T14:16:57;24.70;54.80
29663;DHT22;16578;53.266;7.920;2022-07-17T14:19:22;24.70;54.40
29663;DHT22;16578;53.266;7.920;2022-07-17T14:21:48;24.70;54.40
29663;DHT22;16578;53.266;7.920;2022-07-17T14:24:14;24.80;54.60
29663;DHT22;16578;53.266;7.920;2022-07-17T14:26:40;24.80;54.60
29663;DHT22;16578;53.266;7.920;2022-07-17T14:29:08;24.80;54.10
29663;DHT22;16578;53.266;7.920;2022-07-17T14:31:33;24.80;54.00
29663;DHT22;16578;53.266;7.920;2022-07-17T14:34:00;24.90;54.10
29663;DHT22;16578;53.266;7.920;2022-07-17T14:36:25;24.90;54.20
29663;DHT22;16578;53.266;7.920;2022-07-17T14:38:51;24.90;54.20
29663;DHT22;16578;53.266;7.920;2022-07-17T14:41:17;25.00;55.10
29663;DHT22;16578;53.266;7.920;2022-07-17T14:43:46;25.00;54.50
29663;DHT22;16578;53.266;7.920;2022-07-17T14:46:12;25.00;54.60
29663;DHT22;16578;53.266;7.920;2022-07-17T14:48:38;25.00;54.20
29663;DHT22;16578;53.266;7.920;2022-07-17T14:51:03;25.00;53.90
29663;DHT22;16578;53.266;7.920;2022-07-17T14:53:29;25.00;54.10
29663;DHT22;16578;53.266;7.920;2022-07-17T14:55:54;25.10;54.60
29663;DHT22;16578;53.266;7.920;2022-07-17T14:58:20;25.10;54.30
29663;DHT22;16578;53.266;7.920;2022-07-17T15:00:47;25.10;54.10
29663;DHT22;16578;53.266;7.920;2022-07-17T15:03:12;25.10;54.20
29663;DHT22;16578;53.266;7.920;2022-07-17T15:05:38;25.20;54.30
29663;DHT22;16578;53.266;7.920;2022-07-17T15:08:04;25.20;54.40
29663;DHT22;16578;53.266;7.920;2022-07-17T15:10:30;25.20;54.20
29663;DHT22;16578;53.266;7.920;2022-07-17T15:12:55;25.20;53.90
29663;DHT22;16578;53.266;7.920;2022-07-17T15:15:21;25.20;53.80
29663;DHT22;16578;53.266;7.920;2022-07-17T15:17:47;25.30;53.50
29663;DHT22;16578;53.266;7.920;2022-07-17T15:20:13;25.30;53.00
29663;DHT22;16578;53.266;7.920;2022-07-17T15:22:38;25.30;52.90
29663;DHT22;16578;53.266;7.920;2022-07-17T15:25:04;25.30;52.50
29663;DHT22;16578;53.266;7.920;2022-07-17T15:27:30;25.30;52.60
29663;DHT22;16578;53.266;7.920;2022-07-17T15:29:55;25.30;52.50
29663;DHT22;16578;53.266;7.920;2022-07-17T15:32:21;25.30;52.20